sensor_id;sensor_type;location;lat;lon;timestamp;pressure;altitude;pressure_sealevel;temperature;humidity
23427;BME280;41148;45.420;10.952;2022-11-14T00:02:08;101544.03;;;10.57;99.54
23427;BME280;41148;45.420;10.952;2022-11-14T00:04:54;101545.75;;;10.63;99.54
23427;BME280;41148;45.420;10.952;2022-11-14T00:07:40;101537.72;;;10.65;98.08
23427;BME280;41148;45.420;10.952;2022-11-14T00:10:26;101542.81;;;10.80;96.60
23427;BME280;41148;45.420;10.952;2022-11-14T00:13:12;101542.06;;;10.72;98.44
23427;BME280;41148;45.420;10.952;2022-11-14T00:15:58;101543.81;;;10.74;98.08
23427;BME280;41148;45.420;10.952;2022-11-14T00:18:44;101542.94;;;10.71;98.25
23427;BME280;41148;45.420;10.952;2022-11-14T00:21:30;101543.84;;;10.73;98.85
23427;BME280;41148;45.420;10.952;2022-11-14T00:24:16;101548.16;;;10.81;98.32
23427;BME280;41148;45.420;10.952;2022-11-14T00:27:02;101543.81;;;10.74;97.66
23427;BME280;41148;45.420;10.952;2022-11-14T00:29:48;101540.28;;;10.71;99.23
23427;BME280;41148;45.420;10.952;2022-11-14T00:32:33;101547.28;;;10.78;97.80
23427;BME280;41148;45.420;10.952;2022-11-14T00:35:19;101547.13;;;10.88;96.47
23427;BME280;41148;45.420;10.952;2022-11-14T00:38:05;101546.28;;;10.86;98.19
23427;BME280;41148;45.420;10.952;2022-11-14T00:40:51;101549.78;;;10.88;95.95
23427;BME280;41148;45.420;10.952;2022-11-14T00:43:37;101542.69;;;10.87;96.77
23427;BME280;41148;45.420;10.952;2022-11-14T00:46:22;101540.88;;;10.91;96.22
23427;BME280;41148;45.420;10.952;2022-11-14T00:49:09;101538.94;;;10.99;95.46
23427;BME280;41148;45.420;10.952;2022-11-14T00:51:54;101542.63;;;10.94;95.69
23427;BME280;41148;45.420;10.952;2022-11-14T00:54:40;101546.25;;;10.88;96.23
23427;BME280;41148;45.420;10.952;2022-11-14T00:57:26;101543.63;;;10.85;93.04
23427;BME280;41148;45.420;10.952;2022-11-14T01:00:13;101540.31;;;10.69;95.64
23427;BME280;41148;45.420;10.952;2022-11-14T01:02:59;101543.75;;;10.77;93.98
23427;BME280;41148;45.420;10.952;2022-11-14T01:05:47;101537.47;;;10.80;94.22
23427;BME280;41148;45.420;10.952;2022-11-14T01:08:33;101536.59;;;10.81;94.13
23427;BME280;41148;45.420;10.952;2022-11-14T01:11:20;101533.94;;;10.79;93.30
23427;BME280;41148;45.420;10.952;2022-11-14T01:14:07;101534.91;;;10.75;93.34
23427;BME280;41148;45.420;10.952;2022-11-14T01:16:53;101534.97;;;10.72;92.60
23427;BME280;41148;45.420;10.952;2022-11-14T01:19:39;101539.44;;;10.69;93.12
23427;BME280;41148;45.420;10.952;2022-11-14T01:22:25;101523.56;;;10.61;93.36
23427;BME280;41148;45.420;10.952;2022-11-14T01:25:11;101526.22;;;10.61;94.76
23427;BME280;41148;45.420;10.952;2022-11-14T01:27:57;101531.56;;;10.63;95.35
23427;BME280;41148;45.420;10.952;2022-11-14T01:30:44;101523.56;;;10.59;95.94
23427;BME280;41148;45.420;10.952;2022-11-14T01:33:29;101518.25;;;10.59;95.51
23427;BME280;41148;45.420;10.952;2022-11-14T01:36:15;101511.09;;;10.65;95.62
23427;BME280;41148;45.420;10.952;2022-11-14T01:39:02;101519.00;;;10.69;95.63
23427;BME280;41148;45.420;10.952;2022-11-14T01:41:48;101518.09;;;10.70;96.66
23427;BME280;41148;45.420;10.952;2022-11-14T01:44:42;101515.56;;;10.63;96.23
23427;BME280;41148;45.420;10.952;2022-11-14T01:47:31;101514.41;;;10.79;94.43
23427;BME280;41148;45.420;10.952;2022-11-14T01:50:18;101510.88;;;10.77;94.50
23427;BME280;41148;45.420;10.952;2022-11-14T01:53:04;101508.13;;;10.83;95.14
23427;BME280;41148;45.420;10.952;2022-11-14T01:55:51;101502.84;;;10.81;95.22
23427;BME280;41148;45.420;10.952;2022-11-14T01:58:41;101503.75;;;10.79;96.17
23427;BME280;41148;45.420;10.952;2022-11-14T02:01:31;101498.28;;;10.86;96.20
23427;BME280;41148;45.420;10.952;2022-11-14T02:04:26;101493.94;;;10.82;94.12
23427;BME280;41148;45.420;10.952;2022-11-14T02:07:13;101499.28;;;10.79;96.48
23427;BME280;41148;45.420;10.952;2022-11-14T02:10:03;101495.88;;;10.70;96.27
23427;BME280;41148;45.420;10.952;2022-11-14T02:12:50;101503.69;;;10.83;97.97
23427;BME280;41148;45.420;10.952;2022-11-14T02:15:37;101500.16;;;10.81;97.81
23427;BME280;41148;45.420;10.952;2022-11-14T02:18:23;101496.66;;;10.78;95.21
23427;BME280;41148;45.420;10.952;2022-11-14T02:21:09;101496.69;;;10.76;97.46
23427;BME280;41148;45.420;10.952;2022-11-14T02:23:56;101501.06;;;10.79;98.51
23427;BME280;41148;45.420;10.952;2022-11-14T02:26:42;101487.56;;;10.91;99.31
23427;BME280;41148;45.420;10.952;2022-11-14T02:29:30;101490.34;;;10.83;98.20
23427;BME280;41148;45.420;10.952;2022-11-14T02:32:17;101484.25;;;10.75;98.45
23427;BME280;41148;45.420;10.952;2022-11-14T02:35:03;101489.53;;;10.78;97.86
23427;BME280;41148;45.420;10.952;2022-11-14T02:37:49;101488.47;;;10.88;97.81
23427;BME280;41148;45.420;10.952;2022-11-14T02:40:34;101489.16;;;11.01;93.65
23427;BME280;41148;45.420;10.952;2022-11-14T02:43:20;101489.09;;;11.04;93.17
23427;BME280;41148;45.420;10.952;2022-11-14T02:46:06;101497.16;;;11.00;92.33
23427;BME280;41148;45.420;10.952;2022-11-14T02:48:52;101491.91;;;10.97;91.49
23427;BME280;41148;45.420;10.952;2022-11-14T02:51:37;101497.31;;;10.92;93.60
23427;BME280;41148;45.420;10.952;2022-11-14T02:54:24;101497.25;;;10.95;92.49
23427;BME280;41148;45.420;10.952;2022-11-14T02:57:09;101498.22;;;10.91;92.70
23427;BME280;41148;45.420;10.952;2022-11-14T02:59:55;101502.75;;;10.86;94.19
23427;BME280;41148;45.420;10.952;2022-11-14T03:02:41;101495.63;;;10.86;93.67
23427;BME280;41148;45.420;10.952;2022-11-14T03:05:27;101499.94;;;10.95;92.44
23427;BME280;41148;45.420;10.952;2022-11-14T03:08:13;101500.78;;;10.97;92.67
23427;BME280;41148;45.420;10.952;2022-11-14T03:11:08;101499.09;;;10.90;94.22
23427;BME280;41148;45.420;10.952;2022-11-14T03:13:54;101499.03;;;10.96;92.93
23427;BME280;41148;45.420;10.952;2022-11-14T03:16:40;101497.19;;;10.98;92.58
23427;BME280;41148;45.420;10.952;2022-11-14T03:19:26;101498.28;;;10.86;93.05
23427;BME280;41148;45.420;10.952;2022-11-14T03:22:11;101489.50;;;10.81;94.78
23427;BME280;41148;45.420;10.952;2022-11-14T03:24:57;101483.22;;;10.85;93.41
23427;BME280;41148;45.420;10.952;2022-11-14T03:27:44;101492.19;;;10.78;92.81
23427;BME280;41148;45.420;10.952;2022-11-14T03:30:29;101495.69;;;10.83;92.56
23427;BME280;41148;45.420;10.952;2022-11-14T03:33:15;101494.69;;;10.89;92.24
23427;BME280;41148;45.420;10.952;2022-11-14T03:36:02;101488.72;;;10.75;93.17
23427;BME280;41148;45.420;10.952;2022-11-14T03:38:48;101493.03;;;10.83;92.72
23427;BME280;41148;45.420;10.952;2022-11-14T03:41:34;101501.22;;;10.71;93.47
23427;BME280;41148;45.420;10.952;2022-11-14T03:44:21;101500.28;;;10.74;94.38
23427;BME280;41148;45.420;10.952;2022-11-14T03:47:06;101504.63;;;10.79;92.94
23427;BME280;41148;45.420;10.952;2022-11-14T03:49:52;101491.44;;;10.70;94.55
23427;BME280;41148;45.420;10.952;2022-11-14T03:52:38;101489.72;;;10.68;93.93
23427;BME280;41148;45.420;10.952;2022-11-14T03:55:24;101486.97;;;10.71;93.86
23427;BME280;41148;45.420;10.952;2022-11-14T03:58:10;101479.00;;;10.69;93.82
23427;BME280;41148;45.420;10.952;2022-11-14T04:00:56;101479.00;;;10.69;93.93
23427;BME280;41148;45.420;10.952;2022-11-14T04:03:42;101479.88;;;10.73;93.18
23427;BME280;41148;45.420;10.952;2022-11-14T04:06:28;101477.13;;;10.77;93.28
23427;BME280;41148;45.420;10.952;2022-11-14T04:09:13;101478.97;;;10.74;93.57
23427;BME280;41148;45.420;10.952;2022-11-14T04:11:59;101478.84;;;10.80;93.25
23427;BME280;41148;45.420;10.952;2022-11-14T04:14:45;101480.69;;;10.76;93.49
23427;BME280;41148;45.420;10.952;2022-11-14T04:17:31;101480.78;;;10.72;93.58
23427;BME280;41148;45.420;10.952;2022-11-14T04:20:24;101493.03;;;10.80;93.34
23427;BME280;41148;45.420;10.952;2022-11-14T04:23:10;101482.22;;;10.89;93.33
23427;BME280;41148;45.420;10.952;2022-11-14T04:25:56;101491.22;;;10.84;92.58
23427;BME280;41148;45.420;10.952;2022-11-14T04:28:41;101485.72;;;10.95;92.21
23427;BME280;41148;45.420;10.952;2022-11-14T04:31:27;101483.78;;;11.04;91.74
23427;BME280;41148;45.420;10.952;2022-11-14T04:34:13;101486.34;;;11.09;91.70
23427;BME280;41148;45.420;10.952;2022-11-14T04:36:59;101481.72;;;11.20;90.51
23427;BME280;41148;45.420;10.952;2022-11-14T04:39:45;101482.72;;;11.14;90.53
23427;BME280;41148;45.420;10.952;2022-11-14T04:42:31;101479.06;;;11.18;90.60
23427;BME280;41148;45.420;10.952;2022-11-14T04:45:17;101485.25;;;11.22;90.95
23427;BME280;41148;45.420;10.952;2022-11-14T04:48:02;101479.97;;;11.17;91.24
23427;BME280;41148;45.420;10.952;2022-11-14T04:50:48;101486.28;;;11.13;92.43
23427;BME280;41148;45.420;10.952;2022-11-14T04:53:34;101482.16;;;10.96;92.93
23427;BME280;41148;45.420;10.952;2022-11-14T04:56:20;101474.03;;;11.03;93.31
23427;BME280;41148;45.420;10.952;2022-11-14T04:59:08;101478.53;;;10.98;94.94
23427;BME280;41148;45.420;10.952;2022-11-14T05:01:54;101476.75;;;11.00;93.62
23427;BME280;41148;45.420;10.952;2022-11-14T05:04:40;101480.34;;;10.96;93.84
23427;BME280;41148;45.420;10.952;2022-11-14T05:07:26;101473.38;;;10.91;95.64
23427;BME280;41148;45.420;10.952;2022-11-14T05:10:12;101471.56;;;10.91;96.81
23427;BME280;41148;45.420;10.952;2022-11-14T05:12:58;101468.06;;;10.87;96.35
23427;BME280;41148;45.420;10.952;2022-11-14T05:15:44;101466.41;;;10.82;96.86
23427;BME280;41148;45.420;10.952;2022-11-14T05:18:30;101472.63;;;10.79;97.79
23427;BME280;41148;45.420;10.952;2022-11-14T05:21:16;101470.78;;;10.84;99.33
23427;BME280;41148;45.420;10.952;2022-11-14T05:24:02;101470.84;;;10.81;97.95
23427;BME280;41148;45.420;10.952;2022-11-14T05:26:48;101472.66;;;10.78;99.07
23427;BME280;41148;45.420;10.952;2022-11-14T05:29:34;101461.06;;;10.80;99.17
23427;BME280;41148;45.420;10.952;2022-11-14T05:32:20;101472.56;;;10.84;99.92
23427;BME280;41148;45.420;10.952;2022-11-14T05:35:07;101474.31;;;10.85;100.00
23427;BME280;41148;45.420;10.952;2022-11-14T05:37:52;101466.38;;;10.80;100.00
23427;BME280;41148;45.420;10.952;2022-11-14T05:40:44;101466.47;;;10.76;100.00
23427;BME280;41148;45.420;10.952;2022-11-14T05:43:30;101470.22;;;10.64;100.00
23427;BME280;41148;45.420;10.952;2022-11-14T05:46:16;101473.91;;;10.55;100.00
23427;BME280;41148;45.420;10.952;2022-11-14T05:49:02;101467.75;;;10.53;100.00
23427;BME280;41148;45.420;10.952;2022-11-14T05:51:48;101476.63;;;10.51;100.00
23427;BME280;41148;45.420;10.952;2022-11-14T05:54:33;101474.84;;;10.51;100.00
23427;BME280;41148;45.420;10.952;2022-11-14T05:57:19;101474.00;;;10.49;100.00
23427;BME280;41148;45.420;10.952;2022-11-14T06:00:06;101485.59;;;10.47;100.00
23427;BME280;41148;45.420;10.952;2022-11-14T06:02:54;101488.25;;;10.47;100.00
23427;BME280;41148;45.420;10.952;2022-11-14T06:05:40;101493.56;;;10.48;100.00
23427;BME280;41148;45.420;10.952;2022-11-14T06:08:27;101495.50;;;10.37;100.00
23427;BME280;41148;45.420;10.952;2022-11-14T06:11:17;101502.59;;;10.38;100.00
23427;BME280;41148;45.420;10.952;2022-11-14T06:14:03;101500.84;;;10.36;100.00
23427;BME280;41148;45.420;10.952;2022-11-14T06:16:55;101497.22;;;10.40;100.00
23427;BME280;41148;45.420;10.952;2022-11-14T06:19:41;101506.97;;;10.44;100.00
23427;BME280;41148;45.420;10.952;2022-11-14T06:22:35;101510.53;;;10.43;100.00
23427;BME280;41148;45.420;10.952;2022-11-14T06:25:21;101515.81;;;10.46;100.00
23427;BME280;41148;45.420;10.952;2022-11-14T06:28:07;101513.16;;;10.44;100.00
23427;BME280;41148;45.420;10.952;2022-11-14T06:31:01;101525.56;;;10.47;100.00
23427;BME280;41148;45.420;10.952;2022-11-14T06:33:47;101521.13;;;10.46;100.00
23427;BME280;41148;45.420;10.952;2022-11-14T06:36:33;101524.66;;;10.46;100.00
23427;BME280;41148;45.420;10.952;2022-11-14T06:39:19;101535.25;;;10.52;100.00
23427;BME280;41148;45.420;10.952;2022-11-14T06:42:04;101530.72;;;10.57;100.00
23427;BME280;41148;45.420;10.952;2022-11-14T06:44:50;101530.78;;;10.54;100.00
23427;BME280;41148;45.420;10.952;2022-11-14T06:47:36;101539.63;;;10.56;100.00
23427;BME280;41148;45.420;10.952;2022-11-14T06:50:22;101533.38;;;10.57;100.00
23427;BME280;41148;45.420;10.952;2022-11-14T06:53:08;101544.03;;;10.59;100.00
23427;BME280;41148;45.420;10.952;2022-11-14T06:55:58;101544.88;;;10.63;100.00
23427;BME280;41148;45.420;10.952;2022-11-14T06:58:47;101551.13;;;10.58;100.00
23427;BME280;41148;45.420;10.952;2022-11-14T07:01:33;101538.66;;;10.60;100.00
23427;BME280;41148;45.420;10.952;2022-11-14T07:04:19;101542.25;;;10.58;100.00
23427;BME280;41148;45.420;10.952;2022-11-14T07:07:05;101539.53;;;10.64;100.00
23427;BME280;41148;45.420;10.952;2022-11-14T07:09:51;101551.94;;;10.65;100.00
23427;BME280;41148;45.420;10.952;2022-11-14T07:12:38;101545.66;;;10.68;100.00
23427;BME280;41148;45.420;10.952;2022-11-14T07:15:24;101548.38;;;10.65;100.00
23427;BME280;41148;45.420;10.952;2022-11-14T07:18:10;101551.88;;;10.68;100.00
23427;BME280;41148;45.420;10.952;2022-11-14T07:21:03;101552.72;;;10.73;100.00
23427;BME280;41148;45.420;10.952;2022-11-14T07:23:50;101549.03;;;10.80;100.00
23427;BME280;41148;45.420;10.952;2022-11-14T07:26:36;101557.06;;;10.77;100.00
23427;BME280;41148;45.420;10.952;2022-11-14T07:29:22;101553.44;;;10.83;100.00
23427;BME280;41148;45.420;10.952;2022-11-14T07:32:08;101564.03;;;10.87;100.00
23427;BME280;41148;45.420;10.952;2022-11-14T07:34:54;101560.44;;;10.88;100.00
23427;BME280;41148;45.420;10.952;2022-11-14T07:37:46;101553.41;;;10.86;100.00
23427;BME280;41148;45.420;10.952;2022-11-14T07:40:32;101563.13;;;10.88;100.00
23427;BME280;41148;45.420;10.952;2022-11-14T07:43:18;101554.25;;;10.88;100.00
23427;BME280;41148;45.420;10.952;2022-11-14T07:46:07;101559.63;;;10.85;100.00
23427;BME280;41148;45.420;10.952;2022-11-14T07:48:53;101563.16;;;10.87;100.00
23427;BME280;41148;45.420;10.952;2022-11-14T07:51:39;101557.84;;;10.85;100.00
23427;BME280;41148;45.420;10.952;2022-11-14T07:54:25;101559.59;;;10.86;100.00
23427;BME280;41148;45.420;10.952;2022-11-14T07:57:11;101541.91;;;10.82;100.00
23427;BME280;41148;45.420;10.952;2022-11-14T07:59:57;101557.00;;;10.83;100.00
23427;BME280;41148;45.420;10.952;2022-11-14T08:02:45;101552.44;;;10.92;100.00
23427;BME280;41148;45.420;10.952;2022-11-14T08:05:31;101535.53;;;10.93;100.00
23427;BME280;41148;45.420;10.952;2022-11-14T08:08:16;101545.25;;;10.95;100.00
23427;BME280;41148;45.420;10.952;2022-11-14T08:11:03;101539.84;;;11.00;100.00
23427;BME280;41148;45.420;10.952;2022-11-14T08:13:50;101540.75;;;11.00;100.00
23427;BME280;41148;45.420;10.952;2022-11-14T08:16:36;101535.56;;;10.89;100.00
23427;BME280;41148;45.420;10.952;2022-11-14T08:19:22;101549.72;;;10.95;100.00
23427;BME280;41148;45.420;10.952;2022-11-14T08:22:08;101549.59;;;11.02;100.00
23427;BME280;41148;45.420;10.952;2022-11-14T08:24:54;101539.75;;;11.06;100.00
23427;BME280;41148;45.420;10.952;2022-11-14T08:27:40;101543.16;;;11.14;100.00
23427;BME280;41148;45.420;10.952;2022-11-14T08:30:26;101537.91;;;11.11;100.00
23427;BME280;41148;45.420;10.952;2022-11-14T08:33:12;101541.28;;;11.19;100.00
23427;BME280;41148;45.420;10.952;2022-11-14T08:36:03;101547.38;;;11.27;100.00
23427;BME280;41148;45.420;10.952;2022-11-14T08:38:49;101551.75;;;11.33;100.00
23427;BME280;41148;45.420;10.952;2022-11-14T08:41:36;101543.78;;;11.31;100.00
23427;BME280;41148;45.420;10.952;2022-11-14T08:44:22;101550.72;;;11.40;100.00
23427;BME280;41148;45.420;10.952;2022-11-14T08:47:08;101540.06;;;11.40;100.00
23427;BME280;41148;45.420;10.952;2022-11-14T08:49:54;101549.72;;;11.45;100.00
23427;BME280;41148;45.420;10.952;2022-11-14T08:52:40;101559.34;;;11.54;100.00
23427;BME280;41148;45.420;10.952;2022-11-14T08:55:26;101555.81;;;11.54;100.00
23427;BME280;41148;45.420;10.952;2022-11-14T08:58:12;101552.19;;;11.56;100.00
23427;BME280;41148;45.420;10.952;2022-11-14T09:00:59;101551.31;;;11.56;100.00
23427;BME280;41148;45.420;10.952;2022-11-14T09:03:46;101543.22;;;11.62;100.00
23427;BME280;41148;45.420;10.952;2022-11-14T09:06:32;101546.69;;;11.65;100.00
23427;BME280;41148;45.420;10.952;2022-11-14T09:09:17;101550.41;;;11.58;100.00
23427;BME280;41148;45.420;10.952;2022-11-14T09:12:04;101542.41;;;11.58;98.95
23427;BME280;41148;45.420;10.952;2022-11-14T09:14:50;101540.56;;;11.60;99.25
23427;BME280;41148;45.420;10.952;2022-11-14T09:17:36;101537.78;;;11.66;99.51
23427;BME280;41148;45.420;10.952;2022-11-14T09:23:39;101542.03;;;11.78;98.24
23427;BME280;41148;45.420;10.952;2022-11-14T09:26:25;101543.72;;;11.84;99.01
23427;BME280;41148;45.420;10.952;2022-11-14T09:29:11;101536.47;;;11.90;99.01
23427;BME280;41148;45.420;10.952;2022-11-14T09:31:56;101541.66;;;11.96;100.00
23427;BME280;41148;45.420;10.952;2022-11-14T09:34:42;101533.69;;;11.95;97.49
23427;BME280;41148;45.420;10.952;2022-11-14T09:37:30;101538.16;;;11.94;95.67
23427;BME280;41148;45.420;10.952;2022-11-14T09:40:16;101536.22;;;12.02;96.20
23427;BME280;41148;45.420;10.952;2022-11-14T09:43:20;101531.72;;;12.04;94.73
23427;BME280;41148;45.420;10.952;2022-11-14T09:47:14;101531.72;;;12.04;94.41
23427;BME280;41148;45.420;10.952;2022-11-14T09:49:39;101524.50;;;12.10;95.40
23427;BME280;41148;45.420;10.952;2022-11-14T09:52:34;101519.84;;;12.19;96.24
23427;BME280;41148;45.420;10.952;2022-11-14T09:55:31;101522.50;;;12.19;92.62
23427;BME280;41148;45.420;10.952;2022-11-14T09:58:22;101523.31;;;12.23;92.79
23427;BME280;41148;45.420;10.952;2022-11-14T10:01:27;101516.84;;;12.33;93.09
23427;BME280;41148;45.420;10.952;2022-11-14T10:04:30;101511.38;;;12.39;92.67
23427;BME280;41148;45.420;10.952;2022-11-14T10:16:41;101502.88;;;12.60;92.43
23427;BME280;41148;45.420;10.952;2022-11-14T10:35:01;101478.94;;;12.92;87.63
23427;BME280;41148;45.420;10.952;2022-11-14T10:40:54;101472.19;;;13.11;84.82
23427;BME280;41148;45.420;10.952;2022-11-14T10:43:47;101465.75;;;13.20;80.47
23427;BME280;41148;45.420;10.952;2022-11-14T10:46:39;101465.78;;;13.18;79.17
23427;BME280;41148;45.420;10.952;2022-11-14T10:49:30;101458.72;;;13.15;80.69
23427;BME280;41148;45.420;10.952;2022-11-14T10:52:19;101465.53;;;13.29;80.38
23427;BME280;41148;45.420;10.952;2022-11-14T10:55:13;101464.44;;;13.36;80.54
23427;BME280;41148;45.420;10.952;2022-11-14T10:58:00;101452.13;;;13.29;79.96
23427;BME280;41148;45.420;10.952;2022-11-14T11:00:46;101453.91;;;13.30;80.82
23427;BME280;41148;45.420;10.952;2022-11-14T11:03:40;101446.59;;;13.36;80.00
23427;BME280;41148;45.420;10.952;2022-11-14T11:06:28;101452.25;;;13.26;79.55
23427;BME280;41148;45.420;10.952;2022-11-14T11:09:25;101447.47;;;13.37;77.15
23427;BME280;41148;45.420;10.952;2022-11-14T11:12:41;101445.41;;;13.46;77.74
23427;BME280;41148;45.420;10.952;2022-11-14T11:15:30;101441.66;;;13.54;76.44
23427;BME280;41148;45.420;10.952;2022-11-14T11:18:29;101438.97;;;13.54;77.67
23427;BME280;41148;45.420;10.952;2022-11-14T11:21:21;101436.41;;;13.49;76.14
23427;BME280;41148;45.420;10.952;2022-11-14T11:24:08;101438.97;;;13.54;77.30
23427;BME280;41148;45.420;10.952;2022-11-14T11:30:17;101422.38;;;13.72;75.42
23427;BME280;41148;45.420;10.952;2022-11-14T11:33:20;101419.88;;;13.66;73.70
23427;BME280;41148;45.420;10.952;2022-11-14T11:36:16;101412.94;;;13.90;74.38
23427;BME280;41148;45.420;10.952;2022-11-14T11:39:02;101419.72;;;14.01;74.18
23427;BME280;41148;45.420;10.952;2022-11-14T11:41:48;101409.00;;;14.01;73.29
23427;BME280;41148;45.420;10.952;2022-11-14T11:44:57;101403.59;;;14.03;73.56
23427;BME280;41148;45.420;10.952;2022-11-14T11:47:57;101405.00;;;14.15;73.25
23427;BME280;41148;45.420;10.952;2022-11-14T11:50:46;101401.44;;;14.14;72.52
23427;BME280;41148;45.420;10.952;2022-11-14T11:54:02;101400.78;;;14.06;71.74
23427;BME280;41148;45.420;10.952;2022-11-14T11:56:53;101404.50;;;14.02;70.77
23427;BME280;41148;45.420;10.952;2022-11-14T11:59:46;101399.09;;;14.03;72.46
23427;BME280;41148;45.420;10.952;2022-11-14T12:02:35;101400.78;;;14.06;72.19
23427;BME280;41148;45.420;10.952;2022-11-14T12:08:51;101399.03;;;14.05;72.38
23427;BME280;41148;45.420;10.952;2022-11-14T12:11:45;101394.63;;;14.04;74.22
23427;BME280;41148;45.420;10.952;2022-11-14T12:14:47;101390.81;;;14.11;73.56
23427;BME280;41148;45.420;10.952;2022-11-14T12:20:48;101392.81;;;14.04;72.20
23427;BME280;41148;45.420;10.952;2022-11-14T12:23:53;101392.56;;;14.12;73.14
23427;BME280;41148;45.420;10.952;2022-11-14T12:35:48;101379.25;;;14.37;72.10
23427;BME280;41148;45.420;10.952;2022-11-14T12:38:51;101376.69;;;14.34;72.60
23427;BME280;41148;45.420;10.952;2022-11-14T12:41:39;101377.59;;;14.33;72.95
23427;BME280;41148;45.420;10.952;2022-11-14T12:47:22;101368.69;;;14.32;72.33
23427;BME280;41148;45.420;10.952;2022-11-14T12:50:30;101367.00;;;14.30;71.41
23427;BME280;41148;45.420;10.952;2022-11-14T12:59:33;101364.41;;;14.27;71.85
23427;BME280;41148;45.420;10.952;2022-11-14T13:09:01;101365.38;;;14.24;71.02
23427;BME280;41148;45.420;10.952;2022-11-14T13:11:51;101358.63;;;14.13;72.27
23427;BME280;41148;45.420;10.952;2022-11-14T13:14:56;101346.81;;;14.18;72.76
23427;BME280;41148;45.420;10.952;2022-11-14T13:18:21;101346.38;;;14.32;72.11
23427;BME280;41148;45.420;10.952;2022-11-14T13:21:28;101334.88;;;14.28;72.68
23427;BME280;41148;45.420;10.952;2022-11-14T13:27:48;101333.59;;;14.40;72.46
23427;BME280;41148;45.420;10.952;2022-11-14T13:41:21;101312.28;;;14.36;72.71
23427;BME280;41148;45.420;10.952;2022-11-14T13:47:16;101327.97;;;14.21;72.26
23427;BME280;41148;45.420;10.952;2022-11-14T13:50:16;101317.88;;;14.29;72.82
23427;BME280;41148;45.420;10.952;2022-11-14T13:53:17;101319.88;;;14.23;73.31
23427;BME280;41148;45.420;10.952;2022-11-14T13:56:25;101316.47;;;14.18;72.61
23427;BME280;41148;45.420;10.952;2022-11-14T14:17:45;101322.97;;;14.11;73.65
23427;BME280;41148;45.420;10.952;2022-11-14T14:23:51;101310.38;;;14.13;74.30
23427;BME280;41148;45.420;10.952;2022-11-14T14:29:56;101305.03;;;14.13;72.56
23427;BME280;41148;45.420;10.952;2022-11-14T14:35:53;101301.03;;;13.98;73.99
23427;BME280;41148;45.420;10.952;2022-11-14T14:38:38;101300.16;;;13.97;73.98
23427;BME280;41148;45.420;10.952;2022-11-14T14:41:25;101302.78;;;13.99;73.44
23427;BME280;41148;45.420;10.952;2022-11-14T14:44:20;101309.06;;;13.98;71.61
23427;BME280;41148;45.420;10.952;2022-11-14T14:47:14;101305.63;;;13.94;72.22
23427;BME280;41148;45.420;10.952;2022-11-14T14:50:04;101309.34;;;13.89;70.09
23427;BME280;41148;45.420;10.952;2022-11-14T14:52:56;101307.66;;;13.86;69.57
23427;BME280;41148;45.420;10.952;2022-11-14T14:55:53;101302.47;;;13.82;69.90
23427;BME280;41148;45.420;10.952;2022-11-14T14:58:40;101289.16;;;13.79;69.31
23427;BME280;41148;45.420;10.952;2022-11-14T15:01:32;101293.63;;;13.78;68.89
23427;BME280;41148;45.420;10.952;2022-11-14T15:04:21;101308.78;;;13.79;68.92
23427;BME280;41148;45.420;10.952;2022-11-14T15:07:22;101299.91;;;13.77;69.47
23427;BME280;41148;45.420;10.952;2022-11-14T15:10:19;101293.44;;;13.84;69.65
23427;BME280;41148;45.420;10.952;2022-11-14T15:13:10;101300.66;;;13.82;69.11
23427;BME280;41148;45.420;10.952;2022-11-14T15:15:59;101307.13;;;13.75;69.60
23427;BME280;41148;45.420;10.952;2022-11-14T15:18:47;101308.19;;;13.69;71.81
23427;BME280;41148;45.420;10.952;2022-11-14T15:21:33;101304.69;;;13.67;73.03
23427;BME280;41148;45.420;10.952;2022-11-14T15:24:21;101307.41;;;13.66;74.66
23427;BME280;41148;45.420;10.952;2022-11-14T15:30:05;101289.88;;;13.56;77.70
23427;BME280;41148;45.420;10.952;2022-11-14T15:32:54;101298.00;;;13.53;79.00
23427;BME280;41148;45.420;10.952;2022-11-14T15:35:40;101299.13;;;13.45;80.29
23427;BME280;41148;45.420;10.952;2022-11-14T15:38:26;101306.59;;;13.34;81.52
23427;BME280;41148;45.420;10.952;2022-11-14T15:41:31;101306.72;;;13.30;82.79
23427;BME280;41148;45.420;10.952;2022-11-14T15:44:31;101299.94;;;13.16;84.32
23427;BME280;41148;45.420;10.952;2022-11-14T15:47:26;101295.63;;;13.12;84.80
23427;BME280;41148;45.420;10.952;2022-11-14T15:53:03;101300.50;;;12.97;85.85
23427;BME280;41148;45.420;10.952;2022-11-14T15:55:50;101298.03;;;12.89;86.12
23427;BME280;41148;45.420;10.952;2022-11-14T15:58:35;101298.97;;;12.88;86.51
23427;BME280;41148;45.420;10.952;2022-11-14T16:01:22;101292.84;;;12.84;86.94
23427;BME280;41148;45.420;10.952;2022-11-14T16:04:14;101304.53;;;12.80;87.05
23427;BME280;41148;45.420;10.952;2022-11-14T16:07:01;101302.03;;;12.73;87.68
23427;BME280;41148;45.420;10.952;2022-11-14T16:09:47;101294.16;;;12.68;87.70
23427;BME280;41148;45.420;10.952;2022-11-14T16:12:33;101295.03;;;12.69;88.06
23427;BME280;41148;45.420;10.952;2022-11-14T16:15:19;101303.06;;;12.69;88.41
23427;BME280;41148;45.420;10.952;2022-11-14T16:18:05;101293.38;;;12.65;88.71
23427;BME280;41148;45.420;10.952;2022-11-14T16:20:51;101307.72;;;12.60;88.46
23427;BME280;41148;45.420;10.952;2022-11-14T16:23:37;101302.53;;;12.56;88.52
23427;BME280;41148;45.420;10.952;2022-11-14T16:26:23;101311.56;;;12.50;88.65